Terminal Aerodrome Forecast
Issued by NWS

Home | Current Version | Previous Version | Text Only | Print | Product List | Glossary On
Versions: 1 2 3 4 5 6 7 8 9 10 11 12 13 14 15 16 17
000
FTUS45 KGGW 030520
TAFSDY
TAF
KSDY 030520Z 0306/0406 20007KT P6SM FEW080
     FM031400 21009KT 6SM -SN OVC015
     FM031800 22010KT P6SM OVC025
     FM032300 26011KT P6SM BKN015
     FM040200 27010G19KT P6SM SCT030=

USA.gov is the U.S. government's official web portal to all federal, state and local government web resources and services.